sensor_id;sensor_type;location;lat;lon;timestamp;pressure;altitude;pressure_sealevel;temperature;humidity
23339;BME280;11841;49.368;20.962;2023-07-29T00:02:14;95375.63;;;16.78;98.93
23339;BME280;11841;49.368;20.962;2023-07-29T00:05:00;95370.25;;;16.73;98.91
23339;BME280;11841;49.368;20.962;2023-07-29T00:07:45;95368.66;;;16.72;98.98
23339;BME280;11841;49.368;20.962;2023-07-29T00:10:36;95374.56;;;16.74;99.00
23339;BME280;11841;49.368;20.962;2023-07-29T00:13:22;95379.09;;;16.74;98.81
23339;BME280;11841;49.368;20.962;2023-07-29T00:16:07;95381.50;;;16.75;98.39
23339;BME280;11841;49.368;20.962;2023-07-29T00:18:52;95378.03;;;16.75;97.97
23339;BME280;11841;49.368;20.962;2023-07-29T00:21:38;95380.19;;;16.73;97.97
23339;BME280;11841;49.368;20.962;2023-07-29T00:24:23;95380.94;;;16.68;98.17
23339;BME280;11841;49.368;20.962;2023-07-29T00:27:09;95382.56;;;16.69;97.93
23339;BME280;11841;49.368;20.962;2023-07-29T00:29:54;95387.13;;;16.69;97.60
23339;BME280;11841;49.368;20.962;2023-07-29T00:32:39;95386.81;;;16.65;97.43
23339;BME280;11841;49.368;20.962;2023-07-29T00:35:25;95378.25;;;16.63;97.51
23339;BME280;11841;49.368;20.962;2023-07-29T00:38:10;95372.03;;;16.48;98.01
23339;BME280;11841;49.368;20.962;2023-07-29T00:41:00;95372.03;;;16.48;98.21
23339;BME280;11841;49.368;20.962;2023-07-29T00:43:47;95373.91;;;16.47;98.21
23339;BME280;11841;49.368;20.962;2023-07-29T00:46:34;95372.56;;;16.50;97.90
23339;BME280;11841;49.368;20.962;2023-07-29T00:49:21;95370.44;;;16.52;97.50
23339;BME280;11841;49.368;20.962;2023-07-29T00:52:06;95368.56;;;16.47;97.70
23339;BME280;11841;49.368;20.962;2023-07-29T00:54:52;95372.22;;;16.36;98.21
23339;BME280;11841;49.368;20.962;2023-07-29T00:57:37;95368.50;;;16.37;98.45
23339;BME280;11841;49.368;20.962;2023-07-29T01:00:23;95373.31;;;16.40;98.10
23339;BME280;11841;49.368;20.962;2023-07-29T01:03:09;95372.75;;;16.33;98.17
23339;BME280;11841;49.368;20.962;2023-07-29T01:06:07;95365.78;;;16.32;98.59
23339;BME280;11841;49.368;20.962;2023-07-29T01:09:09;95362.53;;;16.25;98.72
23339;BME280;11841;49.368;20.962;2023-07-29T01:12:12;95368.13;;;16.19;98.90
23339;BME280;11841;49.368;20.962;2023-07-29T01:15:16;95361.94;;;16.13;99.50
23339;BME280;11841;49.368;20.962;2023-07-29T01:18:08;95358.75;;;16.16;99.41
23339;BME280;11841;49.368;20.962;2023-07-29T01:20:58;95369.47;;;16.21;98.95
23339;BME280;11841;49.368;20.962;2023-07-29T01:23:44;95374.84;;;16.26;98.50
23339;BME280;11841;49.368;20.962;2023-07-29T01:26:29;95372.97;;;16.27;98.62
23339;BME280;11841;49.368;20.962;2023-07-29T01:29:15;95363.31;;;16.21;98.74
23339;BME280;11841;49.368;20.962;2023-07-29T01:32:07;95366.53;;;16.23;98.64
23339;BME280;11841;49.368;20.962;2023-07-29T01:35:00;95370.53;;;16.15;99.35
23339;BME280;11841;49.368;20.962;2023-07-29T01:37:51;95363.53;;;16.14;99.05
23339;BME280;11841;49.368;20.962;2023-07-29T01:40:36;95363.00;;;16.17;99.00
23339;BME280;11841;49.368;20.962;2023-07-29T01:43:22;95366.25;;;16.19;98.70
23339;BME280;11841;49.368;20.962;2023-07-29T01:46:10;95364.13;;;16.21;98.59
23339;BME280;11841;49.368;20.962;2023-07-29T01:48:58;95356.03;;;16.11;98.84
23339;BME280;11841;49.368;20.962;2023-07-29T01:51:43;95371.53;;;16.09;98.94
23339;BME280;11841;49.368;20.962;2023-07-29T01:54:29;95371.00;;;16.12;98.77
23339;BME280;11841;49.368;20.962;2023-07-29T01:57:14;95371.00;;;16.12;98.35
23339;BME280;11841;49.368;20.962;2023-07-29T01:59:59;95365.66;;;16.12;97.89
23339;BME280;11841;49.368;20.962;2023-07-29T02:02:45;95362.47;;;16.10;97.71
23339;BME280;11841;49.368;20.962;2023-07-29T02:05:30;95363.78;;;16.08;97.72
23339;BME280;11841;49.368;20.962;2023-07-29T02:08:16;95366.72;;;16.06;97.29
23339;BME280;11841;49.368;20.962;2023-07-29T02:11:01;95361.88;;;16.03;97.41
23339;BME280;11841;49.368;20.962;2023-07-29T02:13:47;95373.63;;;16.02;97.30
23339;BME280;11841;49.368;20.962;2023-07-29T02:16:32;95370.16;;;16.02;97.03
23339;BME280;11841;49.368;20.962;2023-07-29T02:19:20;95370.97;;;16.02;97.01
23339;BME280;11841;49.368;20.962;2023-07-29T02:22:05;95364.00;;;16.01;97.28
23339;BME280;11841;49.368;20.962;2023-07-29T02:24:50;95374.34;;;15.88;97.81
23339;BME280;11841;49.368;20.962;2023-07-29T02:27:36;95376.97;;;15.78;98.09
23339;BME280;11841;49.368;20.962;2023-07-29T02:30:21;95370.25;;;15.75;98.27
23339;BME280;11841;49.368;20.962;2023-07-29T02:33:07;95373.91;;;15.64;98.60
23339;BME280;11841;49.368;20.962;2023-07-29T02:35:52;95364.28;;;15.63;98.84
23339;BME280;11841;49.368;20.962;2023-07-29T02:38:38;95366.44;;;15.66;98.94
23339;BME280;11841;49.368;20.962;2023-07-29T02:41:23;95376.66;;;15.74;98.51
23339;BME280;11841;49.368;20.962;2023-07-29T02:44:08;95375.06;;;15.78;97.98
23339;BME280;11841;49.368;20.962;2023-07-29T02:46:54;95370.00;;;15.82;97.44
23339;BME280;11841;49.368;20.962;2023-07-29T02:49:41;95377.81;;;15.83;97.11
23339;BME280;11841;49.368;20.962;2023-07-29T02:52:26;95378.81;;;15.77;97.58
23339;BME280;11841;49.368;20.962;2023-07-29T02:55:11;95379.63;;;15.78;97.31
23339;BME280;11841;49.368;20.962;2023-07-29T02:57:57;95384.72;;;15.79;97.10
23339;BME280;11841;49.368;20.962;2023-07-29T03:00:42;95384.16;;;15.77;97.11
23339;BME280;11841;49.368;20.962;2023-07-29T03:03:28;95385.75;;;15.78;97.19
23339;BME280;11841;49.368;20.962;2023-07-29T03:06:14;95383.53;;;15.65;98.44
23339;BME280;11841;49.368;20.962;2023-07-29T03:09:00;95379.28;;;15.69;98.64
23339;BME280;11841;49.368;20.962;2023-07-29T03:11:45;95389.22;;;15.73;98.47
23339;BME280;11841;49.368;20.962;2023-07-29T03:14:31;95390.53;;;15.71;98.94
23339;BME280;11841;49.368;20.962;2023-07-29T03:17:16;95394.56;;;15.73;99.01
23339;BME280;11841;49.368;20.962;2023-07-29T03:20:02;95399.00;;;15.63;99.50
23339;BME280;11841;49.368;20.962;2023-07-29T03:22:47;95407.59;;;15.65;99.34
23339;BME280;11841;49.368;20.962;2023-07-29T03:25:33;95400.69;;;15.69;99.26
23339;BME280;11841;49.368;20.962;2023-07-29T03:28:18;95399.09;;;15.73;98.93
23339;BME280;11841;49.368;20.962;2023-07-29T03:31:03;95404.44;;;15.73;98.88
23339;BME280;11841;49.368;20.962;2023-07-29T03:33:49;95402.00;;;15.71;99.15
23339;BME280;11841;49.368;20.962;2023-07-29T03:36:34;95411.16;;;15.76;99.06
23339;BME280;11841;49.368;20.962;2023-07-29T03:39:20;95401.78;;;15.78;98.88
23339;BME280;11841;49.368;20.962;2023-07-29T03:42:05;95404.47;;;15.78;99.12
23339;BME280;11841;49.368;20.962;2023-07-29T03:44:51;95413.00;;;15.75;99.80
23339;BME280;11841;49.368;20.962;2023-07-29T03:47:36;95410.28;;;15.70;100.00
23339;BME280;11841;49.368;20.962;2023-07-29T03:50:22;95419.91;;;15.66;100.00
23339;BME280;11841;49.368;20.962;2023-07-29T03:53:07;95414.56;;;15.66;100.00
23339;BME280;11841;49.368;20.962;2023-07-29T03:55:55;95415.09;;;15.68;100.00
23339;BME280;11841;49.368;20.962;2023-07-29T03:58:40;95412.22;;;15.75;100.00
23339;BME280;11841;49.368;20.962;2023-07-29T04:01:25;95410.84;;;15.72;100.00
23339;BME280;11841;49.368;20.962;2023-07-29T04:04:10;95414.78;;;15.64;100.00
23339;BME280;11841;49.368;20.962;2023-07-29T04:06:56;95414.56;;;15.66;100.00
23339;BME280;11841;49.368;20.962;2023-07-29T04:09:41;95410.28;;;15.70;100.00
23339;BME280;11841;49.368;20.962;2023-07-29T04:12:28;95413.81;;;15.76;100.00
23339;BME280;11841;49.368;20.962;2023-07-29T04:15:14;95417.59;;;15.80;100.00
23339;BME280;11841;49.368;20.962;2023-07-29T04:17:59;95417.00;;;15.73;100.00
23339;BME280;11841;49.368;20.962;2023-07-29T04:20:44;95418.06;;;15.71;100.00
23339;BME280;11841;49.368;20.962;2023-07-29T04:23:30;95418.91;;;15.77;100.00
23339;BME280;11841;49.368;20.962;2023-07-29T04:26:15;95422.69;;;15.81;100.00
23339;BME280;11841;49.368;20.962;2023-07-29T04:29:01;95424.59;;;15.86;100.00
23339;BME280;11841;49.368;20.962;2023-07-29T04:31:46;95426.75;;;15.89;100.00
23339;BME280;11841;49.368;20.962;2023-07-29T04:34:31;95427.81;;;15.88;100.00
23339;BME280;11841;49.368;20.962;2023-07-29T04:37:17;95431.81;;;15.90;100.00
23339;BME280;11841;49.368;20.962;2023-07-29T04:40:02;95425.97;;;15.88;100.00
23339;BME280;11841;49.368;20.962;2023-07-29T04:42:47;95424.50;;;15.76;100.00
23339;BME280;11841;49.368;20.962;2023-07-29T04:45:33;95421.25;;;15.68;100.00
23339;BME280;11841;49.368;20.962;2023-07-29T04:48:18;95429.28;;;15.73;100.00
23339;BME280;11841;49.368;20.962;2023-07-29T04:51:04;95429.34;;;15.79;100.00
23339;BME280;11841;49.368;20.962;2023-07-29T04:53:49;95430.88;;;15.69;100.00
23339;BME280;11841;49.368;20.962;2023-07-29T04:56:35;95431.13;;;15.68;100.00
23339;BME280;11841;49.368;20.962;2023-07-29T04:59:21;95427.97;;;15.71;100.00
23339;BME280;11841;49.368;20.962;2023-07-29T05:02:06;95431.47;;;15.77;100.00
23339;BME280;11841;49.368;20.962;2023-07-29T05:04:52;95427.53;;;15.84;100.00
23339;BME280;11841;49.368;20.962;2023-07-29T05:07:37;95433.94;;;15.83;100.00
23339;BME280;11841;49.368;20.962;2023-07-29T05:10:23;95437.88;;;15.76;100.00
23339;BME280;11841;49.368;20.962;2023-07-29T05:13:08;95431.97;;;15.73;100.00
23339;BME280;11841;49.368;20.962;2023-07-29T05:15:54;95441.66;;;15.80;100.00
23339;BME280;11841;49.368;20.962;2023-07-29T05:18:39;95443.78;;;15.78;100.00
23339;BME280;11841;49.368;20.962;2023-07-29T05:21:25;95444.63;;;15.83;100.00
23339;BME280;11841;49.368;20.962;2023-07-29T05:24:10;95449.47;;;15.86;100.00
23339;BME280;11841;49.368;20.962;2023-07-29T05:26:55;95444.97;;;15.92;100.00
23339;BME280;11841;49.368;20.962;2023-07-29T05:29:41;95438.25;;;15.89;100.00
23339;BME280;11841;49.368;20.962;2023-07-29T05:32:26;95448.66;;;15.86;100.00
23339;BME280;11841;49.368;20.962;2023-07-29T05:35:12;95455.06;;;15.85;100.00
23339;BME280;11841;49.368;20.962;2023-07-29T05:37:57;95453.72;;;15.87;100.00
23339;BME280;11841;49.368;20.962;2023-07-29T05:40:42;95457.00;;;15.94;100.00
23339;BME280;11841;49.368;20.962;2023-07-29T05:43:27;95464.25;;;15.99;100.00
23339;BME280;11841;49.368;20.962;2023-07-29T05:46:12;95466.66;;;16.00;100.00
23339;BME280;11841;49.368;20.962;2023-07-29T05:48:58;95467.22;;;16.02;100.00
23339;BME280;11841;49.368;20.962;2023-07-29T05:51:43;95471.00;;;16.06;100.00
23339;BME280;11841;49.368;20.962;2023-07-29T05:54:28;95460.09;;;16.13;100.00
23339;BME280;11841;49.368;20.962;2023-07-29T05:57:14;95452.34;;;16.16;100.00
23339;BME280;11841;49.368;20.962;2023-07-29T05:59:59;95461.44;;;16.15;100.00
23339;BME280;11841;49.368;20.962;2023-07-29T06:02:45;95456.03;;;16.05;100.00
23339;BME280;11841;49.368;20.962;2023-07-29T06:05:30;95454.66;;;16.03;100.00
23339;BME280;11841;49.368;20.962;2023-07-29T06:08:15;95460.78;;;15.98;100.00
23339;BME280;11841;49.368;20.962;2023-07-29T06:11:00;95451.69;;;15.99;100.00
23339;BME280;11841;49.368;20.962;2023-07-29T06:13:47;95460.88;;;16.08;100.00
23339;BME280;11841;49.368;20.962;2023-07-29T06:16:33;95460.63;;;16.15;100.00
23339;BME280;11841;49.368;20.962;2023-07-29T06:19:20;95452.34;;;16.16;100.00
23339;BME280;11841;49.368;20.962;2023-07-29T06:22:05;95459.84;;;16.19;100.00
23339;BME280;11841;49.368;20.962;2023-07-29T06:24:51;95456.88;;;16.16;100.00
23339;BME280;11841;49.368;20.962;2023-07-29T06:27:36;95456.09;;;16.15;100.00
23339;BME280;11841;49.368;20.962;2023-07-29T06:30:21;95459.28;;;16.17;100.00
23339;BME280;11841;49.368;20.962;2023-07-29T06:33:07;95456.16;;;16.25;100.00
23339;BME280;11841;49.368;20.962;2023-07-29T06:35:52;95454.31;;;16.31;100.00
23339;BME280;11841;49.368;20.962;2023-07-29T06:38:37;95448.75;;;16.37;100.00
23339;BME280;11841;49.368;20.962;2023-07-29T06:41:23;95448.53;;;16.44;100.00
23339;BME280;11841;49.368;20.962;2023-07-29T06:44:09;95451.25;;;16.49;100.00
23339;BME280;11841;49.368;20.962;2023-07-29T06:46:54;95443.53;;;16.52;100.00
23339;BME280;11841;49.368;20.962;2023-07-29T06:49:40;95433.13;;;16.61;100.00
23339;BME280;11841;49.368;20.962;2023-07-29T06:52:25;95439.06;;;16.68;100.00
23339;BME280;11841;49.368;20.962;2023-07-29T06:55:10;95448.72;;;16.79;100.00
23339;BME280;11841;49.368;20.962;2023-07-29T06:57:56;95453.31;;;16.88;100.00
23339;BME280;11841;49.368;20.962;2023-07-29T07:00:41;95446.91;;;16.95;100.00
23339;BME280;11841;49.368;20.962;2023-07-29T07:03:27;95441.59;;;17.05;100.00
23339;BME280;11841;49.368;20.962;2023-07-29T07:06:12;95444.31;;;17.15;100.00
23339;BME280;11841;49.368;20.962;2023-07-29T07:08:58;95441.91;;;17.23;100.00
23339;BME280;11841;49.368;20.962;2023-07-29T07:11:43;95443.03;;;17.32;100.00
23339;BME280;11841;49.368;20.962;2023-07-29T07:14:28;95448.66;;;17.41;100.00
23339;BME280;11841;49.368;20.962;2023-07-29T07:17:14;95444.66;;;17.48;100.00
23339;BME280;11841;49.368;20.962;2023-07-29T07:19:59;95450.31;;;17.62;100.00
23339;BME280;11841;49.368;20.962;2023-07-29T07:22:45;95451.97;;;17.73;100.00
23339;BME280;11841;49.368;20.962;2023-07-29T07:25:31;95448.47;;;17.82;100.00
23339;BME280;11841;49.368;20.962;2023-07-29T07:28:16;95439.59;;;17.97;100.00
23339;BME280;11841;49.368;20.962;2023-07-29T07:31:02;95451.41;;;18.06;100.00
23339;BME280;11841;49.368;20.962;2023-07-29T07:33:47;95438.53;;;18.13;100.00
23339;BME280;11841;49.368;20.962;2023-07-29T07:36:32;95447.09;;;18.30;100.00
23339;BME280;11841;49.368;20.962;2023-07-29T07:39:18;95438.50;;;18.48;100.00
23339;BME280;11841;49.368;20.962;2023-07-29T07:42:03;95441.13;;;18.63;100.00
23339;BME280;11841;49.368;20.962;2023-07-29T07:44:49;95429.84;;;18.76;100.00
23339;BME280;11841;49.368;20.962;2023-07-29T07:47:34;95430.84;;;18.90;100.00
23339;BME280;11841;49.368;20.962;2023-07-29T07:50:20;95424.88;;;19.03;100.00
23339;BME280;11841;49.368;20.962;2023-07-29T07:53:05;95418.41;;;19.09;100.00
23339;BME280;11841;49.368;20.962;2023-07-29T07:55:51;95421.56;;;19.21;100.00
23339;BME280;11841;49.368;20.962;2023-07-29T07:58:36;95410.50;;;19.28;100.00
23339;BME280;11841;49.368;20.962;2023-07-29T08:01:21;95406.50;;;19.31;100.00
23339;BME280;11841;49.368;20.962;2023-07-29T08:04:07;95401.06;;;19.41;100.00
23339;BME280;11841;49.368;20.962;2023-07-29T08:06:52;95403.66;;;19.51;100.00
23339;BME280;11841;49.368;20.962;2023-07-29T08:09:37;95398.72;;;19.68;100.00
23339;BME280;11841;49.368;20.962;2023-07-29T08:12:23;95398.06;;;19.81;99.81
23339;BME280;11841;49.368;20.962;2023-07-29T08:15:08;95388.84;;;19.92;99.67
23339;BME280;11841;49.368;20.962;2023-07-29T08:17:54;95396.06;;;19.96;99.32
23339;BME280;11841;49.368;20.962;2023-07-29T08:20:40;95389.28;;;20.04;98.65
23339;BME280;11841;49.368;20.962;2023-07-29T08:23:25;95397.22;;;20.19;97.96
23339;BME280;11841;49.368;20.962;2023-07-29T08:26:11;95391.69;;;20.34;96.81
23339;BME280;11841;49.368;20.962;2023-07-29T08:28:56;95388.84;;;20.49;95.04
23339;BME280;11841;49.368;20.962;2023-07-29T08:31:42;95387.69;;;20.55;97.11
23339;BME280;11841;49.368;20.962;2023-07-29T08:34:27;95388.81;;;20.73;92.92
23339;BME280;11841;49.368;20.962;2023-07-29T08:37:12;95385.13;;;20.87;91.85
23339;BME280;11841;49.368;20.962;2023-07-29T08:39:58;95381.38;;;20.88;93.17
23339;BME280;11841;49.368;20.962;2023-07-29T08:42:45;95380.91;;;21.05;92.04
23339;BME280;11841;49.368;20.962;2023-07-29T08:45:35;95385.50;;;21.23;91.78
23339;BME280;11841;49.368;20.962;2023-07-29T08:48:39;95379.03;;;21.42;91.29
23339;BME280;11841;49.368;20.962;2023-07-29T08:51:27;95379.03;;;21.61;89.35
23339;BME280;11841;49.368;20.962;2023-07-29T08:54:13;95370.69;;;21.76;87.39
23339;BME280;11841;49.368;20.962;2023-07-29T08:56:59;95361.00;;;21.94;84.38
23339;BME280;11841;49.368;20.962;2023-07-29T08:59:45;95366.22;;;22.04;83.44
23339;BME280;11841;49.368;20.962;2023-07-29T09:02:30;95365.91;;;22.05;83.92
23339;BME280;11841;49.368;20.962;2023-07-29T09:05:16;95369.91;;;22.08;83.38
23339;BME280;11841;49.368;20.962;2023-07-29T09:08:02;95361.44;;;22.14;85.07
23339;BME280;11841;49.368;20.962;2023-07-29T09:10:48;95352.03;;;22.12;87.97
23339;BME280;11841;49.368;20.962;2023-07-29T09:13:33;95354.81;;;22.07;87.95
23339;BME280;11841;49.368;20.962;2023-07-29T09:16:20;95355.22;;;22.14;88.73
23339;BME280;11841;49.368;20.962;2023-07-29T09:19:06;95361.22;;;22.11;91.68
23339;BME280;11841;49.368;20.962;2023-07-29T09:21:52;95342.91;;;22.08;93.66
23339;BME280;11841;49.368;20.962;2023-07-29T09:24:41;95351.44;;;22.15;94.42
23339;BME280;11841;49.368;20.962;2023-07-29T09:27:27;95348.06;;;22.23;89.68
23339;BME280;11841;49.368;20.962;2023-07-29T09:30:16;95352.34;;;22.24;88.16
23339;BME280;11841;49.368;20.962;2023-07-29T09:33:01;95349.66;;;22.24;88.50
23339;BME280;11841;49.368;20.962;2023-07-29T09:35:47;95342.84;;;22.26;88.92
23339;BME280;11841;49.368;20.962;2023-07-29T09:38:32;95346.94;;;22.24;89.55
23339;BME280;11841;49.368;20.962;2023-07-29T09:41:18;95346.34;;;22.27;88.78
23339;BME280;11841;49.368;20.962;2023-07-29T09:44:04;95343.56;;;22.32;86.65
23339;BME280;11841;49.368;20.962;2023-07-29T09:46:50;95342.47;;;22.33;88.45
23339;BME280;11841;49.368;20.962;2023-07-29T09:49:35;95347.88;;;22.33;89.29
23339;BME280;11841;49.368;20.962;2023-07-29T09:52:23;95343.44;;;22.37;88.63
23339;BME280;11841;49.368;20.962;2023-07-29T09:55:13;95333.16;;;22.39;88.01
23339;BME280;11841;49.368;20.962;2023-07-29T09:58:02;95339.97;;;22.36;87.77
23339;BME280;11841;49.368;20.962;2023-07-29T10:00:49;95340.66;;;22.42;86.20
23339;BME280;11841;49.368;20.962;2023-07-29T10:03:35;95343.84;;;22.44;85.33
23339;BME280;11841;49.368;20.962;2023-07-29T10:06:21;95348.19;;;22.45;86.69
23339;BME280;11841;49.368;20.962;2023-07-29T10:09:07;95344.66;;;22.44;87.95
23339;BME280;11841;49.368;20.962;2023-07-29T10:11:53;95341.16;;;22.44;88.64
23339;BME280;11841;49.368;20.962;2023-07-29T10:14:40;95336.88;;;22.43;88.95
23339;BME280;11841;49.368;20.962;2023-07-29T10:17:26;95340.56;;;22.47;88.00
23339;BME280;11841;49.368;20.962;2023-07-29T10:20:12;95339.47;;;22.48;88.51
23339;BME280;11841;49.368;20.962;2023-07-29T10:22:59;95335.88;;;22.52;89.56
23339;BME280;11841;49.368;20.962;2023-07-29T10:26:02;95342.69;;;22.50;87.64
23339;BME280;11841;49.368;20.962;2023-07-29T10:28:50;95339.38;;;22.53;88.49
23339;BME280;11841;49.368;20.962;2023-07-29T10:31:39;95343.69;;;22.54;89.09
23339;BME280;11841;49.368;20.962;2023-07-29T10:34:25;95346.91;;;22.56;89.40
23339;BME280;11841;49.368;20.962;2023-07-29T10:37:11;95346.28;;;22.59;89.88
23339;BME280;11841;49.368;20.962;2023-07-29T10:39:56;95355.22;;;22.59;91.03
23339;BME280;11841;49.368;20.962;2023-07-29T10:43:00;95357.72;;;22.56;91.42
23339;BME280;11841;49.368;20.962;2023-07-29T10:45:47;95356.66;;;22.52;91.06
23339;BME280;11841;49.368;20.962;2023-07-29T10:48:51;95362.06;;;22.52;92.45
23339;BME280;11841;49.368;20.962;2023-07-29T10:51:37;95350.28;;;22.48;92.56
23339;BME280;11841;49.368;20.962;2023-07-29T10:54:23;95347.38;;;22.44;93.19
23339;BME280;11841;49.368;20.962;2023-07-29T10:57:12;95343.25;;;22.47;93.25
23339;BME280;11841;49.368;20.962;2023-07-29T10:59:59;95338.47;;;22.44;93.26
23339;BME280;11841;49.368;20.962;2023-07-29T11:02:56;95334.47;;;22.41;93.00
23339;BME280;11841;49.368;20.962;2023-07-29T11:08:34;95350.88;;;22.45;93.95
23339;BME280;11841;49.368;20.962;2023-07-29T11:11:20;95365.47;;;22.44;94.60
23339;BME280;11841;49.368;20.962;2023-07-29T11:14:05;95364.06;;;22.33;96.49
23339;BME280;11841;49.368;20.962;2023-07-29T11:16:52;95372.47;;;22.31;96.50
23339;BME280;11841;49.368;20.962;2023-07-29T11:19:38;95380.75;;;22.35;96.36
23339;BME280;11841;49.368;20.962;2023-07-29T11:22:25;95378.06;;;22.35;96.79
23339;BME280;11841;49.368;20.962;2023-07-29T11:25:13;95378.06;;;22.35;97.33
23339;BME280;11841;49.368;20.962;2023-07-29T11:27:59;95377.88;;;22.31;97.73
23339;BME280;11841;49.368;20.962;2023-07-29T11:30:50;95379.06;;;22.25;98.25
23339;BME280;11841;49.368;20.962;2023-07-29T11:33:38;95391.53;;;22.21;98.74
23339;BME280;11841;49.368;20.962;2023-07-29T11:36:24;95388.16;;;22.16;98.66
23339;BME280;11841;49.368;20.962;2023-07-29T11:39:09;95380.13;;;22.11;98.85
23339;BME280;11841;49.368;20.962;2023-07-29T11:41:56;95376.41;;;22.07;99.34
23339;BME280;11841;49.368;20.962;2023-07-29T11:44:42;95378.59;;;22.05;99.59
23339;BME280;11841;49.368;20.962;2023-07-29T11:47:27;95374.91;;;22.01;99.71
23339;BME280;11841;49.368;20.962;2023-07-29T11:50:14;95366.59;;;21.97;100.00
23339;BME280;11841;49.368;20.962;2023-07-29T11:53:00;95372.34;;;21.91;100.00
23339;BME280;11841;49.368;20.962;2023-07-29T11:55:50;95367.56;;;21.88;100.00
23339;BME280;11841;49.368;20.962;2023-07-29T11:58:37;95361.16;;;21.84;100.00
23339;BME280;11841;49.368;20.962;2023-07-29T12:01:22;95358.75;;;21.82;100.00
23339;BME280;11841;49.368;20.962;2023-07-29T12:04:08;95349.34;;;21.80;100.00
23339;BME280;11841;49.368;20.962;2023-07-29T12:06:54;95343.06;;;21.66;100.00
23339;BME280;11841;49.368;20.962;2023-07-29T12:09:40;95350.25;;;21.56;100.00
23339;BME280;11841;49.368;20.962;2023-07-29T12:12:29;95352.00;;;21.47;100.00
23339;BME280;11841;49.368;20.962;2023-07-29T12:15:23;95347.75;;;21.41;100.00
23339;BME280;11841;49.368;20.962;2023-07-29T12:18:09;95362.34;;;21.40;100.00
23339;BME280;11841;49.368;20.962;2023-07-29T12:20:55;95370.34;;;21.45;100.00
23339;BME280;11841;49.368;20.962;2023-07-29T12:23:41;95366.16;;;21.39;100.00
23339;BME280;11841;49.368;20.962;2023-07-29T12:26:29;95375.69;;;21.32;100.00
23339;BME280;11841;49.368;20.962;2023-07-29T12:29:16;95378.16;;;21.28;100.00
23339;BME280;11841;49.368;20.962;2023-07-29T12:32:04;95384.13;;;21.25;100.00
23339;BME280;11841;49.368;20.962;2023-07-29T12:34:49;95377.34;;;21.28;100.00
23339;BME280;11841;49.368;20.962;2023-07-29T12:37:35;95367.28;;;21.33;100.00
23339;BME280;11841;49.368;20.962;2023-07-29T12:40:25;95369.91;;;21.38;100.00
23339;BME280;11841;49.368;20.962;2023-07-29T12:43:10;95362.47;;;21.49;100.00
23339;BME280;11841;49.368;20.962;2023-07-29T12:45:57;95364.81;;;21.55;100.00
23339;BME280;11841;49.368;20.962;2023-07-29T12:48:42;95366.81;;;21.63;100.00
23339;BME280;11841;49.368;20.962;2023-07-29T12:51:27;95360.34;;;21.65;100.00
23339;BME280;11841;49.368;20.962;2023-07-29T12:54:13;95358.25;;;21.62;100.00
23339;BME280;11841;49.368;20.962;2023-07-29T12:56:58;95355.63;;;21.56;100.00
23339;BME280;11841;49.368;20.962;2023-07-29T12:59:43;95352.13;;;21.56;100.00
23339;BME280;11841;49.368;20.962;2023-07-29T13:02:28;95350.06;;;21.67;100.00
23339;BME280;11841;49.368;20.962;2023-07-29T13:05:14;95360.69;;;21.77;100.00
23339;BME280;11841;49.368;20.962;2023-07-29T13:07:59;95357.66;;;21.83;100.00
23339;BME280;11841;49.368;20.962;2023-07-29T13:10:44;95357.34;;;21.85;100.00
23339;BME280;11841;49.368;20.962;2023-07-29T13:13:30;95355.38;;;21.90;100.00
23339;BME280;11841;49.368;20.962;2023-07-29T13:16:15;95347.19;;;21.95;100.00
23339;BME280;11841;49.368;20.962;2023-07-29T13:19:01;95349.91;;;21.95;100.00
23339;BME280;11841;49.368;20.962;2023-07-29T13:21:46;95347.41;;;21.99;100.00
23339;BME280;11841;49.368;20.962;2023-07-29T13:24:35;95351.41;;;22.01;100.00
23339;BME280;11841;49.368;20.962;2023-07-29T13:27:20;95359.19;;;22.03;100.00
23339;BME280;11841;49.368;20.962;2023-07-29T13:30:06;95364.59;;;22.03;100.00
23339;BME280;11841;49.368;20.962;2023-07-29T13:32:52;95356.50;;;22.03;100.00
23339;BME280;11841;49.368;20.962;2023-07-29T13:35:37;95349.50;;;22.02;100.00
23339;BME280;11841;49.368;20.962;2023-07-29T13:38:22;95354.41;;;22.00;100.00
23339;BME280;11841;49.368;20.962;2023-07-29T13:41:08;95358.19;;;21.99;100.00
23339;BME280;11841;49.368;20.962;2023-07-29T13:43:53;95359.88;;;21.95;100.00
23339;BME280;11841;49.368;20.962;2023-07-29T13:46:39;95354.16;;;21.83;100.00
23339;BME280;11841;49.368;20.962;2023-07-29T13:49:24;95354.28;;;21.73;100.00
23339;BME280;11841;49.368;20.962;2023-07-29T13:52:09;95368.16;;;21.66;100.00
23339;BME280;11841;49.368;20.962;2023-07-29T13:54:55;95365.19;;;21.49;100.00
23339;BME280;11841;49.368;20.962;2023-07-29T13:57:40;95352.00;;;21.47;100.00
23339;BME280;11841;49.368;20.962;2023-07-29T14:00:26;95352.44;;;21.54;100.00
23339;BME280;11841;49.368;20.962;2023-07-29T14:03:11;95341.72;;;21.49;100.00
23339;BME280;11841;49.368;20.962;2023-07-29T14:05:56;95338.97;;;21.36;100.00
23339;BME280;11841;49.368;20.962;2023-07-29T14:08:42;95343.16;;;21.42;100.00
23339;BME280;11841;49.368;20.962;2023-07-29T14:11:27;95341.28;;;21.42;100.00
23339;BME280;11841;49.368;20.962;2023-07-29T14:14:12;95337.94;;;21.32;100.00
23339;BME280;11841;49.368;20.962;2023-07-29T14:16:58;95334.41;;;21.31;100.00
23339;BME280;11841;49.368;20.962;2023-07-29T14:19:43;95329.09;;;21.26;100.00
23339;BME280;11841;49.368;20.962;2023-07-29T14:22:28;95324.91;;;21.20;100.00
23339;BME280;11841;49.368;20.962;2023-07-29T14:25:14;95327.06;;;21.18;100.00
23339;BME280;11841;49.368;20.962;2023-07-29T14:27:59;95325.56;;;21.12;100.00